Time;durP1;ratioP1;P1;durP2;ratioP2;P2;SDS_P1;SDS_P2;PMS_P1;PMS_P2;Temp;Humidity;BMP_temperature;BMP_pressure;BME280_temperature;BME280_humidity;BME280_pressure;Samples;Min_cycle;Max_cycle;Signal;HPM_P1;HPM_P2
2024/01/23 00:00:15;;;;;;;10.27;2.30;;;;;;;;;;5032077;28;20198;-83
2024/01/23 00:02:42;;;;;;;8.23;2.43;;;;;;;;;;5011693;28;20186;-83
2024/01/23 00:05:08;;;;;;;6.90;2.10;;;;;;;;;;5029073;28;20210;-83
2024/01/23 00:07:34;;;;;;;9.83;2.40;;;;;;;;;;5029760;28;20214;-83
2024/01/23 00:10:00;;;;;;;8.10;2.33;;;;;;;;;;5016791;28;20210;-82
2024/01/23 00:12:26;;;;;;;12.17;2.33;;;;;;;;;;5016330;28;20666;-83
2024/01/23 00:14:54;;;;;;;10.33;2.30;;;;;;;;;;5021542;28;20305;-82
2024/01/23 00:17:20;;;;;;;9.10;2.40;;;;;;;;;;5003444;28;20191;-83
2024/01/23 00:19:46;;;;;;;7.63;2.00;;;;;;;;;;5031567;28;20186;-83
2024/01/23 00:22:12;;;;;;;7.67;2.03;;;;;;;;;;5034591;28;20211;-83
2024/01/23 00:24:39;;;;;;;8.13;2.23;;;;;;;;;;5014683;28;20210;-83
2024/01/23 00:27:05;;;;;;;10.23;2.10;;;;;;;;;;5013584;28;20234;-83
2024/01/23 00:29:33;;;;;;;8.67;2.07;;;;;;;;;;5028904;28;20681;-82
2024/01/23 00:31:59;;;;;;;9.10;2.20;;;;;;;;;;5027930;28;20262;-83
2024/01/23 00:34:25;;;;;;;6.17;2.00;;;;;;;;;;5011426;28;20199;-83
2024/01/23 00:36:51;;;;;;;7.83;2.07;;;;;;;;;;5025740;28;20185;-81
2024/01/23 00:39:17;;;;;;;8.13;2.27;;;;;;;;;;5031306;28;20187;-82
2024/01/23 00:41:43;;;;;;;7.63;2.43;;;;;;;;;;5026662;28;20222;-83
2024/01/23 00:44:10;;;;;;;7.77;2.37;;;;;;;;;;5031171;28;20625;-82
2024/01/23 00:46:36;;;;;;;9.10;2.17;;;;;;;;;;5022172;28;20197;-82
2024/01/23 00:49:02;;;;;;;12.53;2.33;;;;;;;;;;5028902;28;20502;-83
2024/01/23 00:51:28;;;;;;;9.10;2.30;;;;;;;;;;5012094;28;20186;-83
2024/01/23 00:53:55;;;;;;;8.47;2.17;;;;;;;;;;5028474;28;20269;-82
2024/01/23 00:56:21;;;;;;;9.17;2.20;;;;;;;;;;5032692;28;20194;-82
2024/01/23 00:58:47;;;;;;;7.27;2.20;;;;;;;;;;5032739;28;20639;-82
2024/01/23 01:01:13;;;;;;;7.50;2.03;;;;;;;;;;5010915;28;20233;-83
2024/01/23 01:03:40;;;;;;;12.13;2.33;;;;;;;;;;5032358;28;20244;-83
2024/01/23 01:06:06;;;;;;;9.47;2.23;;;;;;;;;;5026539;28;20206;-82
2024/01/23 01:08:32;;;;;;;8.83;2.07;;;;;;;;;;5024647;28;20254;-82
2024/01/23 01:10:58;;;;;;;8.50;2.10;;;;;;;;;;5024410;28;20187;-83
2024/01/23 01:13:24;;;;;;;11.67;2.40;;;;;;;;;;5010571;28;20269;-83
2024/01/23 01:15:50;;;;;;;9.67;2.07;;;;;;;;;;5024686;28;20232;-83
2024/01/23 01:18:16;;;;;;;10.10;2.17;;;;;;;;;;4996756;28;20194;-82
2024/01/23 01:20:48;;;;;;;7.20;2.17;;;;;;;;;;5008261;28;20724;-83
2024/01/23 01:23:16;;;;;;;8.63;2.37;;;;;;;;;;5022030;28;20190;-82
2024/01/23 01:25:45;;;;;;;8.23;2.13;;;;;;;;;;5031905;28;20280;-82
2024/01/23 01:28:12;;;;;;;9.50;1.90;;;;;;;;;;5032236;28;20245;-81
2024/01/23 01:30:38;;;;;;;9.10;2.20;;;;;;;;;;5035254;28;20179;-82
2024/01/23 01:33:05;;;;;;;13.07;2.30;;;;;;;;;;5019526;28;20195;-82
2024/01/23 01:35:32;;;;;;;10.27;1.90;;;;;;;;;;5032367;28;20205;-82
2024/01/23 01:37:58;;;;;;;8.20;2.40;;;;;;;;;;4955536;28;20221;-81
2024/01/23 01:40:25;;;;;;;9.50;2.10;;;;;;;;;;5027418;28;20190;-83
2024/01/23 01:42:53;;;;;;;9.23;2.37;;;;;;;;;;4996312;28;20195;-83
2024/01/23 01:45:19;;;;;;;7.70;2.00;;;;;;;;;;4998572;28;20325;-82
2024/01/23 01:47:47;;;;;;;5.90;2.00;;;;;;;;;;5030366;28;20292;-83
2024/01/23 01:50:14;;;;;;;7.83;2.13;;;;;;;;;;5026601;28;20194;-82
2024/01/23 01:52:41;;;;;;;11.33;2.97;;;;;;;;;;5014180;28;20211;-82
2024/01/23 01:55:08;;;;;;;9.87;2.50;;;;;;;;;;5029174;28;20207;-85
2024/01/23 01:57:39;;;;;;;9.43;1.80;;;;;;;;;;5027162;28;20247;-84
2024/01/23 02:00:06;;;;;;;6.60;2.13;;;;;;;;;;5026024;28;20445;-83
2024/01/23 02:02:41;;;;;;;7.40;1.97;;;;;;;;;;5027475;28;20282;-81
2024/01/23 02:05:07;;;;;;;7.80;2.00;;;;;;;;;;4962787;28;20232;-81
2024/01/23 02:07:33;;;;;;;5.97;1.90;;;;;;;;;;4997707;28;20699;-83
2024/01/23 02:10:00;;;;;;;9.93;2.27;;;;;;;;;;5033603;28;20194;-83
2024/01/23 02:12:26;;;;;;;7.20;2.17;;;;;;;;;;5013224;28;20194;-83
2024/01/23 02:14:52;;;;;;;9.77;2.20;;;;;;;;;;5030481;28;20280;-82
2024/01/23 02:17:18;;;;;;;8.43;1.90;;;;;;;;;;5035172;28;20191;-81
2024/01/23 02:19:44;;;;;;;9.83;2.10;;;;;;;;;;5017980;28;20585;-82
2024/01/23 02:22:10;;;;;;;7.90;1.87;;;;;;;;;;5016242;28;20670;-83
2024/01/23 02:24:36;;;;;;;8.30;2.10;;;;;;;;;;5023686;28;20257;-82
2024/01/23 02:27:03;;;;;;;11.80;2.70;;;;;;;;;;5017001;28;20221;-82
2024/01/23 02:29:30;;;;;;;8.07;2.07;;;;;;;;;;5031864;28;20179;-83
2024/01/23 02:31:57;;;;;;;11.90;2.30;;;;;;;;;;5032554;28;20189;-83
2024/01/23 02:34:24;;;;;;;8.67;2.03;;;;;;;;;;5025492;28;20172;-83
2024/01/23 02:36:50;;;;;;;7.73;2.10;;;;;;;;;;5016629;28;20178;-83
2024/01/23 02:39:16;;;;;;;8.77;2.80;;;;;;;;;;5012312;28;20746;-83
2024/01/23 02:41:42;;;;;;;8.63;2.27;;;;;;;;;;4928026;28;20178;-82
2024/01/23 02:44:09;;;;;;;10.87;2.63;;;;;;;;;;5009326;28;20236;-83
2024/01/23 02:46:35;;;;;;;8.90;2.30;;;;;;;;;;5031837;28;20186;-82
2024/01/23 02:49:01;;;;;;;8.23;2.43;;;;;;;;;;5042176;28;20187;-80
2024/01/23 02:51:27;;;;;;;10.87;2.60;;;;;;;;;;5025375;28;20179;-83
2024/01/23 02:53:53;;;;;;;10.63;2.40;;;;;;;;;;5028562;28;20198;-83
2024/01/23 02:56:19;;;;;;;9.47;2.37;;;;;;;;;;5029042;28;20360;-83
2024/01/23 02:58:45;;;;;;;12.33;2.60;;;;;;;;;;4995841;28;20194;-83
2024/01/23 03:01:11;;;;;;;11.17;2.47;;;;;;;;;;5027803;28;20230;-83
2024/01/23 03:03:37;;;;;;;9.83;2.20;;;;;;;;;;5012660;28;20249;-83
2024/01/23 03:06:04;;;;;;;7.47;2.30;;;;;;;;;;5029740;28;20700;-84
2024/01/23 03:08:30;;;;;;;7.00;1.80;;;;;;;;;;5025769;28;20222;-84
2024/01/23 03:10:56;;;;;;;7.17;1.73;;;;;;;;;;5024714;28;20193;-83
2024/01/23 03:13:22;;;;;;;6.97;1.57;;;;;;;;;;4992129;28;20183;-83
2024/01/23 03:15:52;;;;;;;5.17;1.67;;;;;;;;;;5009561;28;20353;-84
2024/01/23 03:18:18;;;;;;;5.33;1.50;;;;;;;;;;5026445;28;20189;-83
2024/01/23 03:20:44;;;;;;;6.97;1.77;;;;;;;;;;5016887;28;20226;-83
2024/01/23 03:23:10;;;;;;;6.67;1.53;;;;;;;;;;4975129;28;22269;-83
2024/01/23 03:25:37;;;;;;;7.37;1.70;;;;;;;;;;5009345;28;20295;-83
2024/01/23 03:28:03;;;;;;;6.03;1.57;;;;;;;;;;4999851;28;20636;-80
2024/01/23 03:30:30;;;;;;;5.30;1.60;;;;;;;;;;5032088;28;20182;-83
2024/01/23 03:32:57;;;;;;;5.90;1.40;;;;;;;;;;5016259;28;20210;-81
2024/01/23 03:35:24;;;;;;;7.60;1.70;;;;;;;;;;5026703;28;20284;-83
2024/01/23 03:37:50;;;;;;;6.40;1.40;;;;;;;;;;5034707;28;20190;-82
2024/01/23 03:40:16;;;;;;;5.07;1.47;;;;;;;;;;5001587;28;20183;-83
2024/01/23 03:42:42;;;;;;;4.83;1.63;;;;;;;;;;5030796;28;20574;-83
2024/01/23 03:45:09;;;;;;;4.77;1.70;;;;;;;;;;5032580;28;20268;-83
2024/01/23 03:47:35;;;;;;;5.47;1.80;;;;;;;;;;5009298;28;20213;-82
2024/01/23 03:50:02;;;;;;;5.57;1.53;;;;;;;;;;5010931;28;20277;-83
2024/01/23 03:52:29;;;;;;;7.53;1.90;;;;;;;;;;5022405;28;20179;-82
2024/01/23 03:54:56;;;;;;;6.93;1.90;;;;;;;;;;5025595;28;20696;-83
2024/01/23 03:57:22;;;;;;;8.97;2.30;;;;;;;;;;4948599;28;20233;-79
2024/01/23 03:59:48;;;;;;;8.63;2.03;;;;;;;;;;5033482;28;20186;-82
2024/01/23 04:02:14;;;;;;;9.03;2.17;;;;;;;;;;4918222;28;20599;-82
2024/01/23 04:04:40;;;;;;;8.73;2.17;;;;;;;;;;5011200;28;20207;-81
2024/01/23 04:07:07;;;;;;;9.60;2.43;;;;;;;;;;5035843;28;20210;-83
2024/01/23 04:09:33;;;;;;;9.83;2.23;;;;;;;;;;5014685;28;20639;-83
2024/01/23 04:11:59;;;;;;;11.17;2.50;;;;;;;;;;5001730;28;20289;-83
2024/01/23 04:14:25;;;;;;;9.70;2.30;;;;;;;;;;5024029;28;20269;-83
2024/01/23 04:16:51;;;;;;;10.23;2.10;;;;;;;;;;4998702;28;20213;-83
2024/01/23 04:19:17;;;;;;;15.97;2.60;;;;;;;;;;5030471;28;20644;-82
2024/01/23 04:21:44;;;;;;;12.43;2.67;;;;;;;;;;4942556;28;20233;-82
2024/01/23 04:24:10;;;;;;;11.67;3.03;;;;;;;;;;5008308;28;20242;-83
2024/01/23 04:26:37;;;;;;;13.33;2.67;;;;;;;;;;5005921;28;20199;-83
2024/01/23 04:29:03;;;;;;;14.20;2.70;;;;;;;;;;5012119;28;20190;-83
2024/01/23 04:31:30;;;;;;;9.60;2.40;;;;;;;;;;4995421;28;20652;-82
2024/01/23 04:33:56;;;;;;;13.37;2.80;;;;;;;;;;5013145;28;20210;-81
2024/01/23 04:36:23;;;;;;;14.77;3.03;;;;;;;;;;5017894;28;20202;-80
2024/01/23 04:38:49;;;;;;;10.53;2.87;;;;;;;;;;4994221;28;20549;-82
2024/01/23 04:41:15;;;;;;;12.20;2.83;;;;;;;;;;4995179;28;20199;-83
2024/01/23 04:43:42;;;;;;;12.77;2.87;;;;;;;;;;5029403;28;20292;-83
2024/01/23 04:46:08;;;;;;;10.03;2.23;;;;;;;;;;5001901;28;20219;-83
2024/01/23 04:48:34;;;;;;;12.07;2.57;;;;;;;;;;5028812;28;20687;-83
2024/01/23 04:51:01;;;;;;;10.37;2.77;;;;;;;;;;5033627;28;20175;-83
2024/01/23 04:53:30;;;;;;;12.07;2.40;;;;;;;;;;5020485;28;20184;-82
2024/01/23 04:55:56;;;;;;;13.33;2.40;;;;;;;;;;5031033;28;20226;-83
2024/01/23 04:58:22;;;;;;;9.73;2.53;;;;;;;;;;4992947;28;20202;-80
2024/01/23 05:00:49;;;;;;;13.33;2.47;;;;;;;;;;5010688;28;20495;-83
2024/01/23 05:03:15;;;;;;;13.43;2.70;;;;;;;;;;5026458;28;20191;-82
2024/01/23 05:05:41;;;;;;;12.47;2.73;;;;;;;;;;5016787;28;20223;-82
2024/01/23 05:08:08;;;;;;;12.43;2.80;;;;;;;;;;5001542;28;20297;-82
2024/01/23 05:10:34;;;;;;;10.63;2.40;;;;;;;;;;5028674;28;20218;-83
2024/01/23 05:13:00;;;;;;;10.67;2.70;;;;;;;;;;4980619;28;20547;-83
2024/01/23 05:15:26;;;;;;;10.90;2.57;;;;;;;;;;5009897;28;20817;-82
2024/01/23 05:17:53;;;;;;;14.63;2.53;;;;;;;;;;4997872;28;20191;-83
2024/01/23 05:20:19;;;;;;;11.13;2.43;;;;;;;;;;4999358;28;20556;-82
2024/01/23 05:22:45;;;;;;;13.00;2.83;;;;;;;;;;5035664;28;20186;-81
2024/01/23 05:25:11;;;;;;;9.00;2.40;;;;;;;;;;5026131;28;20651;-81
2024/01/23 05:27:38;;;;;;;7.83;2.27;;;;;;;;;;5035564;28;20736;-80
2024/01/23 05:30:06;;;;;;;8.43;2.07;;;;;;;;;;5027164;28;20292;-83
2024/01/23 05:32:33;;;;;;;10.40;2.67;;;;;;;;;;5037152;28;20206;-83
2024/01/23 05:35:03;;;;;;;8.80;2.50;;;;;;;;;;5016425;28;20202;-83
2024/01/23 05:37:29;;;;;;;8.53;2.40;;;;;;;;;;5036195;28;20217;-83
2024/01/23 05:39:55;;;;;;;10.90;2.73;;;;;;;;;;5016541;28;20290;-82
2024/01/23 05:42:22;;;;;;;9.37;2.60;;;;;;;;;;4999009;28;20293;-81
2024/01/23 05:44:48;;;;;;;11.85;2.70;;;;;;;;;;5009217;28;20423;-83
2024/01/23 05:47:14;;;;;;;11.97;2.43;;;;;;;;;;5026532;28;20283;-82
2024/01/23 05:49:40;;;;;;;10.23;2.40;;;;;;;;;;5015861;28;20217;-82
2024/01/23 05:52:06;;;;;;;11.63;2.80;;;;;;;;;;5016985;28;20259;-82
2024/01/23 05:54:33;;;;;;;11.67;2.50;;;;;;;;;;5014667;28;20213;-83
2024/01/23 05:56:59;;;;;;;9.07;2.40;;;;;;;;;;5031579;28;20217;-83
2024/01/23 05:59:25;;;;;;;9.70;2.53;;;;;;;;;;5031956;28;20562;-83
2024/01/23 06:01:51;;;;;;;14.80;3.40;;;;;;;;;;5031266;28;20572;-81
2024/01/23 06:04:24;;;;;;;14.63;2.67;;;;;;;;;;5112717;27;20555;-80
2024/01/23 06:06:50;;;;;;;12.02;2.72;;;;;;;;;;5069671;28;20412;-81
2024/01/23 06:09:17;;;;;;;12.97;2.70;;;;;;;;;;5077326;28;20188;-83
2024/01/23 06:11:43;;;;;;;12.63;2.83;;;;;;;;;;5074811;28;20185;-84
2024/01/23 06:14:09;;;;;;;12.07;2.77;;;;;;;;;;5073330;28;20192;-84
2024/01/23 06:16:37;;;;;;;16.17;2.97;;;;;;;;;;5073309;28;20180;-81
2024/01/23 06:19:06;;;;;;;18.93;3.10;;;;;;;;;;5073596;28;20196;-82
2024/01/23 06:21:33;;;;;;;13.97;3.30;;;;;;;;;;5084441;28;20188;-82
2024/01/23 06:23:59;;;;;;;11.00;2.50;;;;;;;;;;5088578;28;20210;-82
2024/01/23 06:26:25;;;;;;;14.57;2.70;;;;;;;;;;5073574;28;20196;-82
2024/01/23 06:28:51;;;;;;;15.40;3.30;;;;;;;;;;5090261;28;20181;-82
2024/01/23 06:31:20;;;;;;;8.33;2.57;;;;;;;;;;5082981;28;20644;-82
2024/01/23 06:33:46;;;;;;;10.27;2.43;;;;;;;;;;5070870;28;20198;-85
2024/01/23 06:36:12;;;;;;;10.23;2.47;;;;;;;;;;5016654;28;20201;-85
2024/01/23 06:38:38;;;;;;;10.23;2.70;;;;;;;;;;5076087;28;20177;-85
2024/01/23 06:41:04;;;;;;;11.33;2.77;;;;;;;;;;5054023;28;20192;-82
2024/01/23 06:43:31;;;;;;;11.33;3.27;;;;;;;;;;5073631;28;20602;-84
2024/01/23 06:45:57;;;;;;;11.32;2.90;;;;;;;;;;5072042;28;20474;-82
2024/01/23 06:48:23;;;;;;;13.82;3.35;;;;;;;;;;5047783;28;20866;-79
2024/01/23 06:50:50;;;;;;;10.63;2.63;;;;;;;;;;5088143;28;20230;-80
2024/01/23 06:53:16;;;;;;;15.53;3.03;;;;;;;;;;5088779;28;20180;-79
2024/01/23 06:55:42;;;;;;;11.00;2.40;;;;;;;;;;5096678;28;20207;-82
2024/01/23 06:58:08;;;;;;;11.45;2.88;;;;;;;;;;5076517;28;20413;-84
2024/01/23 07:00:35;;;;;;;11.77;2.50;;;;;;;;;;5066439;28;20276;-80
2024/01/23 07:03:01;;;;;;;9.03;2.50;;;;;;;;;;5057116;28;20664;-77
2024/01/23 07:05:28;;;;;;;12.70;2.63;;;;;;;;;;5065200;28;20652;-79
2024/01/23 07:07:54;;;;;;;11.30;2.30;;;;;;;;;;5086144;28;20184;-78
2024/01/23 07:10:20;;;;;;;10.30;2.20;;;;;;;;;;5068877;28;20272;-77
2024/01/23 07:12:46;;;;;;;14.10;2.80;;;;;;;;;;5084945;28;20185;-79
2024/01/23 07:15:12;;;;;;;13.27;2.30;;;;;;;;;;5062282;28;20205;-78
2024/01/23 07:17:38;;;;;;;9.10;2.20;;;;;;;;;;5070083;28;20246;-78
2024/01/23 07:20:08;;;;;;;11.00;2.53;;;;;;;;;;5060074;28;20196;-78
2024/01/23 07:22:34;;;;;;;7.97;2.50;;;;;;;;;;5075554;28;20216;-79
2024/01/23 07:25:02;;;;;;;7.53;2.47;;;;;;;;;;5078583;28;20215;-80
2024/01/23 07:27:28;;;;;;;10.87;3.23;;;;;;;;;;5072614;28;20250;-79
2024/01/23 07:29:54;;;;;;;12.33;2.67;;;;;;;;;;5070259;28;20177;-79
2024/01/23 07:32:20;;;;;;;9.27;2.60;;;;;;;;;;5072800;28;20196;-79
2024/01/23 07:34:46;;;;;;;11.23;2.63;;;;;;;;;;5072386;28;20646;-79
2024/01/23 07:37:12;;;;;;;10.30;2.43;;;;;;;;;;5071975;28;20204;-79
2024/01/23 07:39:38;;;;;;;12.10;2.53;;;;;;;;;;5054307;28;20185;-78
2024/01/23 07:42:05;;;;;;;8.23;2.57;;;;;;;;;;5040603;28;20228;-79
2024/01/23 07:44:33;;;;;;;12.80;2.57;;;;;;;;;;5071446;28;20732;-79
2024/01/23 07:46:59;;;;;;;16.50;2.70;;;;;;;;;;5057948;28;20657;-79
2024/01/23 07:49:25;;;;;;;13.97;2.87;;;;;;;;;;5072428;28;20193;-80
2024/01/23 07:51:52;;;;;;;7.30;2.27;;;;;;;;;;5071164;28;20266;-81
2024/01/23 07:54:18;;;;;;;10.80;2.93;;;;;;;;;;5071529;28;20369;-81
2024/01/23 07:56:44;;;;;;;13.60;2.83;;;;;;;;;;5055900;28;20753;-81
2024/01/23 07:59:10;;;;;;;11.67;2.90;;;;;;;;;;5057279;28;20262;-80
2024/01/23 08:01:37;;;;;;;12.97;2.63;;;;;;;;;;5056883;28;20189;-81
2024/01/23 08:04:03;;;;;;;13.03;2.83;;;;;;;;;;5056171;28;20672;-81
2024/01/23 08:06:30;;;;;;;14.47;3.20;;;;;;;;;;5057873;28;20269;-81
2024/01/23 08:08:56;;;;;;;13.53;3.00;;;;;;;;;;5060579;28;20597;-80
2024/01/23 08:11:22;;;;;;;13.67;3.50;;;;;;;;;;5056391;28;20216;-81
2024/01/23 08:13:48;;;;;;;16.00;3.83;;;;;;;;;;5053331;28;20188;-81
2024/01/23 08:16:16;;;;;;;12.97;3.17;;;;;;;;;;5071201;28;20209;-81
2024/01/23 08:18:42;;;;;;;11.60;2.60;;;;;;;;;;5073200;28;20250;-81
2024/01/23 08:21:09;;;;;;;10.43;2.40;;;;;;;;;;5045118;28;20209;-81
2024/01/23 08:23:36;;;;;;;10.33;2.50;;;;;;;;;;5052342;28;20213;-81
2024/01/23 08:26:03;;;;;;;10.57;2.87;;;;;;;;;;5082655;28;20205;-81
2024/01/23 08:28:29;;;;;;;8.70;2.47;;;;;;;;;;5088460;28;20201;-82
2024/01/23 08:30:57;;;;;;;13.23;2.43;;;;;;;;;;5084464;28;20268;-82
2024/01/23 08:33:23;;;;;;;10.30;2.40;;;;;;;;;;5081500;28;20215;-82
2024/01/23 08:35:49;;;;;;;11.03;2.60;;;;;;;;;;5043486;28;20213;-82
2024/01/23 08:38:15;;;;;;;11.97;2.43;;;;;;;;;;5039460;28;20194;-82
2024/01/23 08:40:45;;;;;;;12.70;2.40;;;;;;;;;;5077647;28;20207;-82
2024/01/23 08:43:11;;;;;;;9.47;2.73;;;;;;;;;;5060066;28;20538;-82
2024/01/23 08:45:37;;;;;;;12.80;3.07;;;;;;;;;;5041146;28;20234;-82
2024/01/23 08:48:03;;;;;;;9.80;2.83;;;;;;;;;;5074424;28;20178;-82
2024/01/23 08:50:29;;;;;;;15.13;3.20;;;;;;;;;;5059681;28;20182;-82
2024/01/23 08:52:55;;;;;;;11.20;3.50;;;;;;;;;;5055679;28;20212;-79
2024/01/23 08:55:21;;;;;;;10.57;2.97;;;;;;;;;;5073365;28;20268;-80
2024/01/23 08:57:47;;;;;;;14.40;3.90;;;;;;;;;;5056468;28;20722;-80
2024/01/23 09:00:14;;;;;;;17.93;7.83;;;;;;;;;;5072533;28;20189;-80
2024/01/23 09:02:40;;;;;;;13.70;5.40;;;;;;;;;;5045170;28;20280;-82
2024/01/23 09:05:06;;;;;;;13.87;4.97;;;;;;;;;;5063820;28;20209;-81
2024/01/23 09:07:32;;;;;;;12.40;2.83;;;;;;;;;;5042832;28;20186;-81
2024/01/23 09:09:58;;;;;;;14.80;5.90;;;;;;;;;;5054177;28;20189;-82
2024/01/23 09:12:25;;;;;;;12.50;5.40;;;;;;;;;;5071447;28;20193;-81
2024/01/23 09:14:51;;;;;;;13.17;3.80;;;;;;;;;;5055265;28;20200;-81
2024/01/23 09:17:17;;;;;;;9.90;3.47;;;;;;;;;;5051517;28;20711;-81
2024/01/23 09:19:43;;;;;;;15.93;3.77;;;;;;;;;;5038431;28;20250;-81
2024/01/23 09:22:10;;;;;;;9.83;2.60;;;;;;;;;;5070167;28;20914;-82
2024/01/23 09:24:36;;;;;;;10.27;2.43;;;;;;;;;;5061221;28;20216;-81
2024/01/23 09:27:03;;;;;;;8.30;2.13;;;;;;;;;;5055134;28;20196;-81
2024/01/23 09:29:30;;;;;;;7.87;2.47;;;;;;;;;;5052043;28;20190;-79
2024/01/23 09:31:57;;;;;;;9.97;2.43;;;;;;;;;;5069254;28;20315;-79
2024/01/23 09:34:23;;;;;;;13.17;3.27;;;;;;;;;;5070247;28;20224;-79
2024/01/23 09:36:49;;;;;;;13.00;2.40;;;;;;;;;;5053613;28;20188;-79
2024/01/23 09:39:15;;;;;;;11.53;2.43;;;;;;;;;;5065821;28;20264;-81
2024/01/23 09:41:46;;;;;;;10.20;2.60;;;;;;;;;;5070945;28;20185;-81
2024/01/23 09:44:13;;;;;;;12.00;2.17;;;;;;;;;;5070032;28;20283;-81
2024/01/23 09:46:39;;;;;;;9.27;2.20;;;;;;;;;;5053942;28;20250;-81
2024/01/23 09:49:05;;;;;;;8.00;2.30;;;;;;;;;;5072034;28;20228;-80
2024/01/23 09:51:32;;;;;;;12.33;2.73;;;;;;;;;;5036654;28;20255;-79
2024/01/23 09:53:58;;;;;;;12.43;2.70;;;;;;;;;;5054700;28;20257;-81
2024/01/23 09:56:25;;;;;;;8.53;2.53;;;;;;;;;;5080294;28;20255;-79
2024/01/23 09:58:52;;;;;;;10.37;2.60;;;;;;;;;;5079312;28;20188;-80
2024/01/23 10:01:18;;;;;;;9.73;2.40;;;;;;;;;;5055137;28;20177;-80
2024/01/23 10:03:48;;;;;;;12.60;2.87;;;;;;;;;;5053253;28;20200;-80
2024/01/23 10:06:17;;;;;;;10.83;2.60;;;;;;;;;;5053319;28;20212;-80
2024/01/23 10:08:43;;;;;;;10.80;2.60;;;;;;;;;;5043919;28;20177;-80
2024/01/23 10:11:10;;;;;;;14.23;2.50;;;;;;;;;;5069361;28;20182;-80
2024/01/23 10:13:39;;;;;;;12.60;2.87;;;;;;;;;;5069517;28;20266;-79
2024/01/23 10:16:07;;;;;;;15.03;2.90;;;;;;;;;;5073775;28;20205;-80
2024/01/23 10:18:33;;;;;;;7.70;2.70;;;;;;;;;;5054269;28;20272;-80
2024/01/23 10:20:59;;;;;;;9.27;2.60;;;;;;;;;;5036198;28;20211;-80
2024/01/23 10:23:26;;;;;;;14.87;3.13;;;;;;;;;;5069824;28;20205;-80
2024/01/23 10:25:54;;;;;;;13.63;2.80;;;;;;;;;;5066685;28;20259;-80
2024/01/23 10:28:22;;;;;;;12.33;2.93;;;;;;;;;;5056271;28;20189;-80
2024/01/23 10:30:48;;;;;;;15.07;2.67;;;;;;;;;;5069360;28;20231;-80
2024/01/23 10:33:14;;;;;;;11.80;2.43;;;;;;;;;;5070392;28;20272;-80
2024/01/23 10:35:44;;;;;;;13.93;2.60;;;;;;;;;;5053002;28;20209;-80
2024/01/23 10:38:14;;;;;;;11.43;2.87;;;;;;;;;;5070935;28;20189;-80
2024/01/23 10:40:40;;;;;;;10.73;2.77;;;;;;;;;;5036042;28;20185;-80
2024/01/23 10:43:07;;;;;;;9.50;2.77;;;;;;;;;;5052899;28;20250;-80
2024/01/23 10:45:36;;;;;;;13.80;2.93;;;;;;;;;;5054004;28;20213;-80
2024/01/23 10:48:06;;;;;;;14.57;2.93;;;;;;;;;;5051973;28;20185;-80
2024/01/23 10:50:34;;;;;;;12.37;3.10;;;;;;;;;;5070372;28;20672;-80
2024/01/23 10:53:05;;;;;;;15.80;3.37;;;;;;;;;;5072383;28;20640;-80
2024/01/23 10:55:32;;;;;;;11.60;3.00;;;;;;;;;;5057181;28;20298;-80
2024/01/23 10:58:04;;;;;;;20.23;3.77;;;;;;;;;;5073473;28;20696;-80
2024/01/23 11:00:32;;;;;;;14.70;3.07;;;;;;;;;;5071888;28;20197;-80
2024/01/23 11:03:05;;;;;;;10.90;3.10;;;;;;;;;;5055127;28;20209;-80
2024/01/23 11:05:38;;;;;;;13.90;3.70;;;;;;;;;;5075901;28;20760;-80
2024/01/23 11:08:10;;;;;;;14.57;3.37;;;;;;;;;;5071716;28;20304;-80
2024/01/23 11:10:47;;;;;;;10.80;2.90;;;;;;;;;;5055504;28;20279;-80
2024/01/23 11:13:19;;;;;;;11.00;2.80;;;;;;;;;;5072731;28;20668;-80
2024/01/23 11:15:45;;;;;;;13.53;3.20;;;;;;;;;;5054907;28;20292;-80
2024/01/23 11:18:25;;;;;;;9.70;2.83;;;;;;;;;;5055912;28;20193;-80
2024/01/23 11:21:09;;;;;;;14.03;3.00;;;;;;;;;;5035661;28;20201;-80
2024/01/23 11:23:36;;;;;;;14.70;2.90;;;;;;;;;;5072331;28;20223;-80
2024/01/23 11:26:03;;;;;;;12.57;3.20;;;;;;;;;;5076630;28;20197;-80
2024/01/23 11:28:33;;;;;;;12.30;3.37;;;;;;;;;;5058759;28;20185;-80
2024/01/23 11:31:09;;;;;;;11.27;2.73;;;;;;;;;;5057262;28;20675;-80
2024/01/23 11:33:35;;;;;;;10.57;2.97;;;;;;;;;;5054540;28;20197;-80
2024/01/23 11:36:08;;;;;;;14.77;2.97;;;;;;;;;;5073763;28;20285;-80
2024/01/23 11:38:44;;;;;;;12.20;3.03;;;;;;;;;;5073758;28;20169;-80
2024/01/23 11:41:22;;;;;;;13.93;2.80;;;;;;;;;;5056065;28;20279;-80
2024/01/23 11:43:55;;;;;;;10.63;2.90;;;;;;;;;;5073203;28;20257;-80
2024/01/23 11:46:23;;;;;;;13.93;3.00;;;;;;;;;;5067664;28;20209;-80
2024/01/23 11:48:49;;;;;;;15.27;3.03;;;;;;;;;;5055566;28;20189;-80
2024/01/23 11:51:16;;;;;;;15.13;3.40;;;;;;;;;;5071579;28;20189;-80
2024/01/23 11:53:43;;;;;;;14.03;3.20;;;;;;;;;;5071754;28;20238;-80
2024/01/23 11:56:13;;;;;;;11.43;2.77;;;;;;;;;;5071721;28;20201;-80
2024/01/23 11:58:40;;;;;;;13.37;3.17;;;;;;;;;;5072394;28;20610;-80
2024/01/23 12:01:08;;;;;;;12.40;2.93;;;;;;;;;;5038206;28;20221;-80
2024/01/23 12:03:35;;;;;;;12.90;2.90;;;;;;;;;;5052422;28;20260;-80
2024/01/23 12:06:02;;;;;;;8.43;2.73;;;;;;;;;;5054552;28;20211;-80
2024/01/23 12:08:28;;;;;;;10.43;2.70;;;;;;;;;;5075167;28;20181;-80
2024/01/23 12:10:57;;;;;;;14.60;3.37;;;;;;;;;;5079554;28;20192;-79
2024/01/23 12:13:24;;;;;;;11.00;2.70;;;;;;;;;;5079843;28;20193;-80
2024/01/23 12:15:50;;;;;;;8.20;2.50;;;;;;;;;;5061984;28;20310;-80
2024/01/23 12:18:20;;;;;;;9.83;2.20;;;;;;;;;;5069126;28;20177;-80
2024/01/23 12:20:52;;;;;;;9.00;2.40;;;;;;;;;;5073780;28;20700;-80
2024/01/23 12:23:19;;;;;;;9.23;2.47;;;;;;;;;;5068141;28;20216;-80
2024/01/23 12:25:46;;;;;;;9.23;2.77;;;;;;;;;;5055469;28;20262;-80
2024/01/23 12:28:13;;;;;;;12.80;2.90;;;;;;;;;;5055632;28;20655;-80
2024/01/23 12:30:39;;;;;;;9.70;2.73;;;;;;;;;;5071779;28;20211;-80
2024/01/23 12:33:06;;;;;;;7.93;2.37;;;;;;;;;;5072162;28;20189;-80
2024/01/23 12:35:32;;;;;;;10.40;2.50;;;;;;;;;;5055257;28;20212;-80
2024/01/23 12:37:58;;;;;;;8.00;2.20;;;;;;;;;;5070934;28;20192;-80
2024/01/23 12:40:26;;;;;;;9.43;2.50;;;;;;;;;;5071926;28;20186;-80
2024/01/23 12:42:52;;;;;;;11.90;2.97;;;;;;;;;;5073192;28;20197;-79
2024/01/23 12:45:19;;;;;;;11.43;2.77;;;;;;;;;;5071923;28;20211;-80
2024/01/23 12:47:45;;;;;;;12.47;3.00;;;;;;;;;;5055357;28;20181;-80
2024/01/23 12:50:20;;;;;;;11.60;2.53;;;;;;;;;;5072233;28;20209;-79
2024/01/23 12:52:51;;;;;;;11.77;2.63;;;;;;;;;;5073390;28;20268;-80
2024/01/23 12:55:17;;;;;;;13.50;3.07;;;;;;;;;;5066085;28;20240;-80
2024/01/23 12:57:44;;;;;;;10.60;2.80;;;;;;;;;;5038365;28;20192;-81
2024/01/23 13:00:14;;;;;;;10.00;2.93;;;;;;;;;;5073343;28;20185;-80
2024/01/23 13:02:41;;;;;;;12.77;2.93;;;;;;;;;;5053537;28;20591;-80
2024/01/23 13:05:07;;;;;;;11.37;2.43;;;;;;;;;;5073517;28;20294;-80
2024/01/23 13:07:34;;;;;;;7.57;2.77;;;;;;;;;;5054676;28;20715;-77
2024/01/23 13:10:03;;;;;;;11.63;2.70;;;;;;;;;;5070484;28;20177;-79
2024/01/23 13:12:29;;;;;;;9.90;3.43;;;;;;;;;;5064079;28;20316;-77
2024/01/23 13:14:55;;;;;;;10.97;3.47;;;;;;;;;;5054424;28;20258;-77
2024/01/23 13:17:22;;;;;;;8.97;3.20;;;;;;;;;;5071565;28;20184;-77
2024/01/23 13:19:48;;;;;;;8.23;2.80;;;;;;;;;;5071694;28;20277;-80
2024/01/23 13:22:14;;;;;;;12.53;3.00;;;;;;;;;;5057247;28;20282;-80
2024/01/23 13:24:40;;;;;;;10.67;2.80;;;;;;;;;;5074371;28;20209;-80
2024/01/23 13:27:07;;;;;;;11.13;2.87;;;;;;;;;;5061744;28;20605;-80
2024/01/23 13:29:34;;;;;;;10.73;3.20;;;;;;;;;;5056616;28;20189;-80
2024/01/23 13:32:00;;;;;;;13.03;3.27;;;;;;;;;;5071901;28;20539;-79
2024/01/23 13:34:27;;;;;;;11.13;4.60;;;;;;;;;;5054820;28;20337;-80
2024/01/23 13:36:53;;;;;;;19.60;8.97;;;;;;;;;;5035603;28;20194;-79
2024/01/23 13:39:19;;;;;;;14.47;4.37;;;;;;;;;;5071826;28;20181;-79
2024/01/23 13:41:46;;;;;;;10.50;3.50;;;;;;;;;;5072431;28;20189;-80
2024/01/23 13:44:12;;;;;;;9.33;4.73;;;;;;;;;;5071864;28;20209;-79
2024/01/23 13:46:39;;;;;;;9.80;3.87;;;;;;;;;;5054980;28;20625;-79
2024/01/23 13:49:06;;;;;;;10.53;4.23;;;;;;;;;;5073267;28;20669;-79
2024/01/23 13:51:32;;;;;;;14.73;5.80;;;;;;;;;;5054131;28;20412;-79
2024/01/23 13:53:58;;;;;;;11.80;3.57;;;;;;;;;;5071485;28;20213;-79
2024/01/23 13:56:24;;;;;;;15.67;3.33;;;;;;;;;;5072861;28;20296;-79
2024/01/23 13:58:51;;;;;;;11.87;4.03;;;;;;;;;;5037672;28;20244;-80
2024/01/23 14:01:19;;;;;;;16.47;4.57;;;;;;;;;;5072119;28;20199;-80
2024/01/23 14:03:45;;;;;;;9.87;5.20;;;;;;;;;;5057005;28;20269;-79
2024/01/23 14:06:11;;;;;;;11.53;3.97;;;;;;;;;;5055107;28;20232;-79
2024/01/23 14:08:42;;;;;;;14.80;3.40;;;;;;;;;;5072529;28;20193;-79
2024/01/23 14:11:09;;;;;;;9.73;2.60;;;;;;;;;;5073297;28;20185;-79
2024/01/23 14:13:39;;;;;;;8.83;2.77;;;;;;;;;;5056166;28;20346;-79
2024/01/23 14:16:05;;;;;;;12.83;3.23;;;;;;;;;;5089685;28;20699;-79
2024/01/23 14:18:31;;;;;;;13.23;2.83;;;;;;;;;;5072273;28;20200;-79
2024/01/23 14:20:57;;;;;;;13.07;2.70;;;;;;;;;;5086927;28;20193;-79
2024/01/23 14:23:24;;;;;;;12.17;3.20;;;;;;;;;;5068120;28;20284;-79
2024/01/23 14:25:50;;;;;;;10.63;2.80;;;;;;;;;;5060996;28;20216;-79
2024/01/23 14:28:17;;;;;;;12.60;3.73;;;;;;;;;;5077688;28;20189;-79
2024/01/23 14:30:44;;;;;;;11.73;3.80;;;;;;;;;;5058925;28;20730;-79
2024/01/23 14:33:12;;;;;;;13.77;3.37;;;;;;;;;;5072892;28;20254;-79